sensor_id;sensor_type;location;lat;lon;timestamp;temperature;humidity
20337;DHT22;10326;53.660;10.200;2022-08-21T00:00:50;18.30;60.50
20337;DHT22;10326;53.660;10.200;2022-08-21T00:03:18;18.30;60.60
20337;DHT22;10326;53.660;10.200;2022-08-21T00:05:48;18.20;60.50
20337;DHT22;10326;53.660;10.200;2022-08-21T00:08:16;18.20;60.80
20337;DHT22;10326;53.660;10.200;2022-08-21T00:10:44;18.20;60.50
20337;DHT22;10326;53.660;10.200;2022-08-21T00:13:13;18.10;60.60
20337;DHT22;10326;53.660;10.200;2022-08-21T00:15:41;18.10;60.90
20337;DHT22;10326;53.660;10.200;2022-08-21T00:18:10;18.00;61.00
20337;DHT22;10326;53.660;10.200;2022-08-21T00:20:38;18.00;61.20
20337;DHT22;10326;53.660;10.200;2022-08-21T00:23:06;18.00;61.20
20337;DHT22;10326;53.660;10.200;2022-08-21T00:25:34;18.00;61.30
20337;DHT22;10326;53.660;10.200;2022-08-21T00:28:01;17.90;61.30
20337;DHT22;10326;53.660;10.200;2022-08-21T00:30:29;17.90;61.90
20337;DHT22;10326;53.660;10.200;2022-08-21T00:32:57;17.90;61.70
20337;DHT22;10326;53.660;10.200;2022-08-21T00:35:30;17.90;61.70
20337;DHT22;10326;53.660;10.200;2022-08-21T00:37:58;17.90;61.80
20337;DHT22;10326;53.660;10.200;2022-08-21T00:40:28;17.80;61.60
20337;DHT22;10326;53.660;10.200;2022-08-21T00:42:57;17.80;61.90
20337;DHT22;10326;53.660;10.200;2022-08-21T00:45:24;17.80;62.30
20337;DHT22;10326;53.660;10.200;2022-08-21T00:47:53;17.80;61.80
20337;DHT22;10326;53.660;10.200;2022-08-21T00:50:21;17.70;61.80
20337;DHT22;10326;53.660;10.200;2022-08-21T00:52:51;17.80;62.00
20337;DHT22;10326;53.660;10.200;2022-08-21T00:55:20;17.70;62.10
20337;DHT22;10326;53.660;10.200;2022-08-21T00:57:51;17.70;62.10
20337;DHT22;10326;53.660;10.200;2022-08-21T01:00:23;17.70;62.20
20337;DHT22;10326;53.660;10.200;2022-08-21T01:02:53;17.70;63.10
20337;DHT22;10326;53.660;10.200;2022-08-21T01:05:20;17.70;62.40
20337;DHT22;10326;53.660;10.200;2022-08-21T01:07:47;17.60;62.70
20337;DHT22;10326;53.660;10.200;2022-08-21T01:10:16;17.60;62.60
20337;DHT22;10326;53.660;10.200;2022-08-21T01:12:44;17.60;62.70
20337;DHT22;10326;53.660;10.200;2022-08-21T01:15:13;17.60;62.70
20337;DHT22;10326;53.660;10.200;2022-08-21T01:17:41;17.60;62.90
20337;DHT22;10326;53.660;10.200;2022-08-21T01:20:10;17.60;62.90
20337;DHT22;10326;53.660;10.200;2022-08-21T01:22:39;17.60;63.20
20337;DHT22;10326;53.660;10.200;2022-08-21T01:25:08;17.60;63.20
20337;DHT22;10326;53.660;10.200;2022-08-21T01:27:37;17.60;63.30
20337;DHT22;10326;53.660;10.200;2022-08-21T01:30:09;17.60;63.30
20337;DHT22;10326;53.660;10.200;2022-08-21T01:32:37;17.60;63.40
20337;DHT22;10326;53.660;10.200;2022-08-21T01:35:05;17.50;63.20
20337;DHT22;10326;53.660;10.200;2022-08-21T01:37:33;17.50;63.20
20337;DHT22;10326;53.660;10.200;2022-08-21T01:40:04;17.50;63.20
20337;DHT22;10326;53.660;10.200;2022-08-21T01:42:32;17.50;63.50
20337;DHT22;10326;53.660;10.200;2022-08-21T01:44:59;17.50;63.40
20337;DHT22;10326;53.660;10.200;2022-08-21T01:47:26;17.40;63.40
20337;DHT22;10326;53.660;10.200;2022-08-21T01:49:53;17.40;63.30
20337;DHT22;10326;53.660;10.200;2022-08-21T01:52:20;17.40;63.40
20337;DHT22;10326;53.660;10.200;2022-08-21T01:54:47;17.40;63.60
20337;DHT22;10326;53.660;10.200;2022-08-21T01:57:15;17.40;63.60
20337;DHT22;10326;53.660;10.200;2022-08-21T01:59:42;17.40;63.70
20337;DHT22;10326;53.660;10.200;2022-08-21T02:02:09;17.30;63.60
20337;DHT22;10326;53.660;10.200;2022-08-21T02:04:36;17.30;63.70
20337;DHT22;10326;53.660;10.200;2022-08-21T02:07:03;17.30;63.60
20337;DHT22;10326;53.660;10.200;2022-08-21T02:09:30;17.30;63.60
20337;DHT22;10326;53.660;10.200;2022-08-21T02:11:57;17.20;63.50
20337;DHT22;10326;53.660;10.200;2022-08-21T02:14:26;17.20;63.50
20337;DHT22;10326;53.660;10.200;2022-08-21T02:16:53;17.20;63.80
20337;DHT22;10326;53.660;10.200;2022-08-21T02:19:19;17.20;63.70
20337;DHT22;10326;53.660;10.200;2022-08-21T02:21:46;17.10;63.90
20337;DHT22;10326;53.660;10.200;2022-08-21T02:24:13;17.10;64.00
20337;DHT22;10326;53.660;10.200;2022-08-21T02:26:40;17.10;64.10
20337;DHT22;10326;53.660;10.200;2022-08-21T02:29:07;17.10;64.10
20337;DHT22;10326;53.660;10.200;2022-08-21T02:31:36;17.10;64.10
20337;DHT22;10326;53.660;10.200;2022-08-21T02:34:03;17.10;64.30
20337;DHT22;10326;53.660;10.200;2022-08-21T02:36:30;17.10;64.30
20337;DHT22;10326;53.660;10.200;2022-08-21T02:38:57;17.10;64.40
20337;DHT22;10326;53.660;10.200;2022-08-21T02:41:24;17.00;64.40
20337;DHT22;10326;53.660;10.200;2022-08-21T02:43:51;17.00;64.70
20337;DHT22;10326;53.660;10.200;2022-08-21T02:46:19;17.00;65.00
20337;DHT22;10326;53.660;10.200;2022-08-21T02:48:48;17.00;65.00
20337;DHT22;10326;53.660;10.200;2022-08-21T02:51:18;17.00;65.10
20337;DHT22;10326;53.660;10.200;2022-08-21T02:53:47;17.00;65.20
20337;DHT22;10326;53.660;10.200;2022-08-21T02:56:16;17.00;65.10
20337;DHT22;10326;53.660;10.200;2022-08-21T02:58:53;17.00;65.20
20337;DHT22;10326;53.660;10.200;2022-08-21T03:01:20;17.00;66.10
20337;DHT22;10326;53.660;10.200;2022-08-21T03:03:49;17.00;65.20
20337;DHT22;10326;53.660;10.200;2022-08-21T03:06:17;17.00;65.20
20337;DHT22;10326;53.660;10.200;2022-08-21T03:08:45;17.00;65.50
20337;DHT22;10326;53.660;10.200;2022-08-21T03:11:13;17.00;65.30
20337;DHT22;10326;53.660;10.200;2022-08-21T03:13:41;17.00;65.40
20337;DHT22;10326;53.660;10.200;2022-08-21T03:16:08;17.00;65.30
20337;DHT22;10326;53.660;10.200;2022-08-21T03:18:36;17.00;65.30
20337;DHT22;10326;53.660;10.200;2022-08-21T03:21:05;17.00;65.40
20337;DHT22;10326;53.660;10.200;2022-08-21T03:23:32;17.00;65.60
20337;DHT22;10326;53.660;10.200;2022-08-21T03:25:59;16.90;66.00
20337;DHT22;10326;53.660;10.200;2022-08-21T03:28:27;16.90;65.50
20337;DHT22;10326;53.660;10.200;2022-08-21T03:30:54;16.90;65.60
20337;DHT22;10326;53.660;10.200;2022-08-21T03:33:21;16.90;65.60
20337;DHT22;10326;53.660;10.200;2022-08-21T03:35:56;16.90;65.70
20337;DHT22;10326;53.660;10.200;2022-08-21T03:38:28;16.90;66.10
20337;DHT22;10326;53.660;10.200;2022-08-21T03:40:57;16.90;66.00
20337;DHT22;10326;53.660;10.200;2022-08-21T03:43:25;16.90;65.80
20337;DHT22;10326;53.660;10.200;2022-08-21T03:45:52;16.80;65.80
20337;DHT22;10326;53.660;10.200;2022-08-21T03:48:20;16.80;65.80
20337;DHT22;10326;53.660;10.200;2022-08-21T03:50:47;16.80;65.90
20337;DHT22;10326;53.660;10.200;2022-08-21T03:53:16;16.80;66.10
20337;DHT22;10326;53.660;10.200;2022-08-21T03:55:45;16.80;66.20
20337;DHT22;10326;53.660;10.200;2022-08-21T03:58:14;16.80;66.20
20337;DHT22;10326;53.660;10.200;2022-08-21T04:00:41;16.80;66.10
20337;DHT22;10326;53.660;10.200;2022-08-21T04:03:08;16.70;66.10
20337;DHT22;10326;53.660;10.200;2022-08-21T04:05:35;16.70;66.20
20337;DHT22;10326;53.660;10.200;2022-08-21T04:08:04;16.70;66.30
20337;DHT22;10326;53.660;10.200;2022-08-21T04:10:34;16.70;66.40
20337;DHT22;10326;53.660;10.200;2022-08-21T04:13:05;16.70;66.40
20337;DHT22;10326;53.660;10.200;2022-08-21T04:15:33;16.70;66.50
20337;DHT22;10326;53.660;10.200;2022-08-21T04:18:00;16.70;66.40
20337;DHT22;10326;53.660;10.200;2022-08-21T04:20:27;16.70;66.50
20337;DHT22;10326;53.660;10.200;2022-08-21T04:22:55;16.70;66.60
20337;DHT22;10326;53.660;10.200;2022-08-21T04:25:24;16.70;66.90
20337;DHT22;10326;53.660;10.200;2022-08-21T04:27:51;16.70;67.00
20337;DHT22;10326;53.660;10.200;2022-08-21T04:30:21;16.70;67.00
20337;DHT22;10326;53.660;10.200;2022-08-21T04:32:49;16.70;67.20
20337;DHT22;10326;53.660;10.200;2022-08-21T04:35:20;16.70;67.10
20337;DHT22;10326;53.660;10.200;2022-08-21T04:37:48;16.70;67.00
20337;DHT22;10326;53.660;10.200;2022-08-21T04:40:17;16.60;67.50
20337;DHT22;10326;53.660;10.200;2022-08-21T04:42:48;16.70;67.10
20337;DHT22;10326;53.660;10.200;2022-08-21T04:45:18;16.70;67.40
20337;DHT22;10326;53.660;10.200;2022-08-21T04:47:49;16.60;67.50
20337;DHT22;10326;53.660;10.200;2022-08-21T04:50:17;16.70;67.50
20337;DHT22;10326;53.660;10.200;2022-08-21T04:53:03;16.60;67.30
20337;DHT22;10326;53.660;10.200;2022-08-21T04:55:31;16.70;67.60
20337;DHT22;10326;53.660;10.200;2022-08-21T04:57:58;16.70;67.70
20337;DHT22;10326;53.660;10.200;2022-08-21T05:00:27;16.70;67.90
20337;DHT22;10326;53.660;10.200;2022-08-21T05:02:57;16.70;68.00
20337;DHT22;10326;53.660;10.200;2022-08-21T05:05:26;16.70;68.20
20337;DHT22;10326;53.660;10.200;2022-08-21T05:07:54;16.70;68.10
20337;DHT22;10326;53.660;10.200;2022-08-21T05:10:22;16.70;68.30
20337;DHT22;10326;53.660;10.200;2022-08-21T05:12:49;16.80;68.60
20337;DHT22;10326;53.660;10.200;2022-08-21T05:15:16;16.80;68.80
20337;DHT22;10326;53.660;10.200;2022-08-21T05:17:45;16.80;69.40
20337;DHT22;10326;53.660;10.200;2022-08-21T05:20:13;16.80;68.90
20337;DHT22;10326;53.660;10.200;2022-08-21T05:22:40;16.90;69.00
20337;DHT22;10326;53.660;10.200;2022-08-21T05:25:09;16.90;69.00
20337;DHT22;10326;53.660;10.200;2022-08-21T05:27:36;16.90;69.50
20337;DHT22;10326;53.660;10.200;2022-08-21T05:30:04;17.00;69.50
20337;DHT22;10326;53.660;10.200;2022-08-21T05:32:32;17.00;69.60
20337;DHT22;10326;53.660;10.200;2022-08-21T05:35:02;17.00;69.70
20337;DHT22;10326;53.660;10.200;2022-08-21T05:37:29;17.00;69.80
20337;DHT22;10326;53.660;10.200;2022-08-21T05:39:56;17.00;69.80
20337;DHT22;10326;53.660;10.200;2022-08-21T05:42:23;17.10;70.00
20337;DHT22;10326;53.660;10.200;2022-08-21T05:44:50;17.10;70.20
20337;DHT22;10326;53.660;10.200;2022-08-21T05:47:17;17.10;70.50
20337;DHT22;10326;53.660;10.200;2022-08-21T05:49:44;17.20;70.70
20337;DHT22;10326;53.660;10.200;2022-08-21T05:52:17;17.20;71.00
20337;DHT22;10326;53.660;10.200;2022-08-21T05:54:45;17.20;71.60
20337;DHT22;10326;53.660;10.200;2022-08-21T05:57:12;17.30;71.70
20337;DHT22;10326;53.660;10.200;2022-08-21T05:59:38;17.30;72.00
20337;DHT22;10326;53.660;10.200;2022-08-21T06:02:05;17.40;72.30
20337;DHT22;10326;53.660;10.200;2022-08-21T06:04:35;17.40;72.60
20337;DHT22;10326;53.660;10.200;2022-08-21T06:07:03;17.50;72.90
20337;DHT22;10326;53.660;10.200;2022-08-21T06:09:32;17.60;72.90
20337;DHT22;10326;53.660;10.200;2022-08-21T06:12:03;17.60;73.20
20337;DHT22;10326;53.660;10.200;2022-08-21T06:14:31;17.70;73.50
20337;DHT22;10326;53.660;10.200;2022-08-21T06:17:02;17.70;73.20
20337;DHT22;10326;53.660;10.200;2022-08-21T06:19:29;17.80;73.80
20337;DHT22;10326;53.660;10.200;2022-08-21T06:21:56;17.80;73.50
20337;DHT22;10326;53.660;10.200;2022-08-21T06:24:24;17.90;73.80
20337;DHT22;10326;53.660;10.200;2022-08-21T06:26:52;17.90;73.70
20337;DHT22;10326;53.660;10.200;2022-08-21T06:29:19;18.00;74.10
20337;DHT22;10326;53.660;10.200;2022-08-21T06:31:47;18.10;74.10
20337;DHT22;10326;53.660;10.200;2022-08-21T06:34:15;18.10;74.20
20337;DHT22;10326;53.660;10.200;2022-08-21T06:36:42;18.20;74.10
20337;DHT22;10326;53.660;10.200;2022-08-21T06:39:09;18.30;74.20
20337;DHT22;10326;53.660;10.200;2022-08-21T06:41:36;18.30;74.10
20337;DHT22;10326;53.660;10.200;2022-08-21T06:44:04;18.40;74.20
20337;DHT22;10326;53.660;10.200;2022-08-21T06:46:31;18.40;74.30
20337;DHT22;10326;53.660;10.200;2022-08-21T06:48:59;18.50;74.50
20337;DHT22;10326;53.660;10.200;2022-08-21T06:51:26;18.50;74.60
20337;DHT22;10326;53.660;10.200;2022-08-21T06:53:54;18.60;74.70
20337;DHT22;10326;53.660;10.200;2022-08-21T06:56:21;18.70;74.60
20337;DHT22;10326;53.660;10.200;2022-08-21T06:58:48;18.70;74.50
20337;DHT22;10326;53.660;10.200;2022-08-21T07:01:16;18.80;74.50
20337;DHT22;10326;53.660;10.200;2022-08-21T07:03:43;18.90;74.60
20337;DHT22;10326;53.660;10.200;2022-08-21T07:06:11;19.00;74.60
20337;DHT22;10326;53.660;10.200;2022-08-21T07:08:38;19.00;74.50
20337;DHT22;10326;53.660;10.200;2022-08-21T07:11:10;19.10;74.30
20337;DHT22;10326;53.660;10.200;2022-08-21T07:13:38;19.10;74.40
20337;DHT22;10326;53.660;10.200;2022-08-21T07:16:05;19.20;74.20
20337;DHT22;10326;53.660;10.200;2022-08-21T07:18:35;19.30;74.10
20337;DHT22;10326;53.660;10.200;2022-08-21T07:21:02;19.30;73.90
20337;DHT22;10326;53.660;10.200;2022-08-21T07:23:39;19.30;74.20
20337;DHT22;10326;53.660;10.200;2022-08-21T07:26:07;19.40;73.50
20337;DHT22;10326;53.660;10.200;2022-08-21T07:28:34;19.50;73.30
20337;DHT22;10326;53.660;10.200;2022-08-21T07:31:02;19.50;73.10
20337;DHT22;10326;53.660;10.200;2022-08-21T07:33:32;19.60;73.20
20337;DHT22;10326;53.660;10.200;2022-08-21T07:36:02;19.50;72.80
20337;DHT22;10326;53.660;10.200;2022-08-21T07:38:29;19.60;72.70
20337;DHT22;10326;53.660;10.200;2022-08-21T07:40:57;19.60;72.70
20337;DHT22;10326;53.660;10.200;2022-08-21T07:43:27;19.70;72.70
20337;DHT22;10326;53.660;10.200;2022-08-21T07:45:54;19.70;72.70
20337;DHT22;10326;53.660;10.200;2022-08-21T07:48:21;19.70;72.20
20337;DHT22;10326;53.660;10.200;2022-08-21T07:50:50;19.80;72.20
20337;DHT22;10326;53.660;10.200;2022-08-21T07:53:17;19.80;72.00
20337;DHT22;10326;53.660;10.200;2022-08-21T07:55:44;19.90;71.70
20337;DHT22;10326;53.660;10.200;2022-08-21T07:58:11;19.90;71.50
20337;DHT22;10326;53.660;10.200;2022-08-21T08:00:39;20.00;71.30
20337;DHT22;10326;53.660;10.200;2022-08-21T08:03:06;20.00;70.80
20337;DHT22;10326;53.660;10.200;2022-08-21T08:05:34;20.10;70.40
20337;DHT22;10326;53.660;10.200;2022-08-21T08:08:04;20.10;69.90
20337;DHT22;10326;53.660;10.200;2022-08-21T08:10:32;20.20;69.80
20337;DHT22;10326;53.660;10.200;2022-08-21T08:13:00;20.30;69.50
20337;DHT22;10326;53.660;10.200;2022-08-21T08:15:28;20.30;69.40
20337;DHT22;10326;53.660;10.200;2022-08-21T08:17:56;20.40;69.10
20337;DHT22;10326;53.660;10.200;2022-08-21T08:20:24;20.50;68.90
20337;DHT22;10326;53.660;10.200;2022-08-21T08:22:53;20.50;68.60
20337;DHT22;10326;53.660;10.200;2022-08-21T08:25:23;20.60;68.70
20337;DHT22;10326;53.660;10.200;2022-08-21T08:27:50;20.70;68.30
20337;DHT22;10326;53.660;10.200;2022-08-21T08:30:18;20.70;68.10
20337;DHT22;10326;53.660;10.200;2022-08-21T08:32:48;20.80;68.00
20337;DHT22;10326;53.660;10.200;2022-08-21T08:35:15;20.90;67.90
20337;DHT22;10326;53.660;10.200;2022-08-21T08:37:42;21.00;68.00
20337;DHT22;10326;53.660;10.200;2022-08-21T08:40:12;21.00;67.50
20337;DHT22;10326;53.660;10.200;2022-08-21T08:42:44;21.10;67.40
20337;DHT22;10326;53.660;10.200;2022-08-21T08:45:16;21.20;67.20
20337;DHT22;10326;53.660;10.200;2022-08-21T08:47:47;21.30;66.90
20337;DHT22;10326;53.660;10.200;2022-08-21T08:50:19;21.30;66.90
20337;DHT22;10326;53.660;10.200;2022-08-21T08:52:51;21.40;66.40
20337;DHT22;10326;53.660;10.200;2022-08-21T08:55:28;21.50;66.60
20337;DHT22;10326;53.660;10.200;2022-08-21T08:57:58;21.50;66.30
20337;DHT22;10326;53.660;10.200;2022-08-21T09:00:25;21.60;66.50
20337;DHT22;10326;53.660;10.200;2022-08-21T09:02:55;21.70;66.50
20337;DHT22;10326;53.660;10.200;2022-08-21T09:05:26;21.70;66.30
20337;DHT22;10326;53.660;10.200;2022-08-21T09:08:06;21.80;66.30
20337;DHT22;10326;53.660;10.200;2022-08-21T09:10:47;21.80;65.90
20337;DHT22;10326;53.660;10.200;2022-08-21T09:13:27;21.90;65.80
20337;DHT22;10326;53.660;10.200;2022-08-21T09:16:08;22.00;65.70
20337;DHT22;10326;53.660;10.200;2022-08-21T09:18:54;22.10;66.10
20337;DHT22;10326;53.660;10.200;2022-08-21T09:21:35;22.10;65.60
20337;DHT22;10326;53.660;10.200;2022-08-21T09:24:18;22.20;66.10
20337;DHT22;10326;53.660;10.200;2022-08-21T09:26:59;22.20;65.80
20337;DHT22;10326;53.660;10.200;2022-08-21T09:29:36;22.30;65.60
20337;DHT22;10326;53.660;10.200;2022-08-21T09:32:09;22.40;65.60
20337;DHT22;10326;53.660;10.200;2022-08-21T09:34:37;22.50;65.60
20337;DHT22;10326;53.660;10.200;2022-08-21T09:37:04;22.50;65.30
20337;DHT22;10326;53.660;10.200;2022-08-21T09:39:43;22.60;65.40
20337;DHT22;10326;53.660;10.200;2022-08-21T09:42:10;22.60;65.50
20337;DHT22;10326;53.660;10.200;2022-08-21T09:44:40;22.70;65.70
20337;DHT22;10326;53.660;10.200;2022-08-21T09:47:10;22.80;64.90
20337;DHT22;10326;53.660;10.200;2022-08-21T09:49:40;22.90;64.60
20337;DHT22;10326;53.660;10.200;2022-08-21T09:52:16;22.90;64.70
20337;DHT22;10326;53.660;10.200;2022-08-21T09:54:52;23.00;64.20
20337;DHT22;10326;53.660;10.200;2022-08-21T09:57:24;23.10;64.20
20337;DHT22;10326;53.660;10.200;2022-08-21T10:00:11;23.20;63.60
20337;DHT22;10326;53.660;10.200;2022-08-21T10:02:44;23.20;63.00
20337;DHT22;10326;53.660;10.200;2022-08-21T10:05:17;23.30;63.40
20337;DHT22;10326;53.660;10.200;2022-08-21T10:07:45;23.40;62.40
20337;DHT22;10326;53.660;10.200;2022-08-21T10:10:17;23.50;63.00
20337;DHT22;10326;53.660;10.200;2022-08-21T10:12:53;23.50;61.90
20337;DHT22;10326;53.660;10.200;2022-08-21T10:15:42;23.60;62.20
20337;DHT22;10326;53.660;10.200;2022-08-21T10:18:21;23.70;61.30
20337;DHT22;10326;53.660;10.200;2022-08-21T10:20:59;23.70;60.90
20337;DHT22;10326;53.660;10.200;2022-08-21T10:23:42;23.80;60.80
20337;DHT22;10326;53.660;10.200;2022-08-21T10:26:25;23.80;59.90
20337;DHT22;10326;53.660;10.200;2022-08-21T10:29:02;23.90;59.60
20337;DHT22;10326;53.660;10.200;2022-08-21T10:31:42;24.00;59.60
20337;DHT22;10326;53.660;10.200;2022-08-21T10:34:24;24.10;59.80
20337;DHT22;10326;53.660;10.200;2022-08-21T10:37:08;24.10;58.80
20337;DHT22;10326;53.660;10.200;2022-08-21T10:39:51;24.10;59.00
20337;DHT22;10326;53.660;10.200;2022-08-21T10:42:29;24.10;59.40
20337;DHT22;10326;53.660;10.200;2022-08-21T10:45:08;24.20;59.00
20337;DHT22;10326;53.660;10.200;2022-08-21T10:47:42;24.20;58.50
20337;DHT22;10326;53.660;10.200;2022-08-21T10:50:23;24.20;58.60
20337;DHT22;10326;53.660;10.200;2022-08-21T10:53:13;24.30;58.40
20337;DHT22;10326;53.660;10.200;2022-08-21T10:55:47;24.30;58.20
20337;DHT22;10326;53.660;10.200;2022-08-21T10:58:22;24.30;58.30
20337;DHT22;10326;53.660;10.200;2022-08-21T11:00:58;24.30;58.10
20337;DHT22;10326;53.660;10.200;2022-08-21T11:03:35;24.40;58.60
20337;DHT22;10326;53.660;10.200;2022-08-21T11:06:08;24.40;58.40
20337;DHT22;10326;53.660;10.200;2022-08-21T11:08:41;24.40;58.40
20337;DHT22;10326;53.660;10.200;2022-08-21T11:11:13;24.50;58.50
20337;DHT22;10326;53.660;10.200;2022-08-21T11:13:47;24.50;58.30
20337;DHT22;10326;53.660;10.200;2022-08-21T11:16:21;24.50;58.30
20337;DHT22;10326;53.660;10.200;2022-08-21T11:19:02;24.50;58.40
20337;DHT22;10326;53.660;10.200;2022-08-21T11:21:37;24.60;58.00
20337;DHT22;10326;53.660;10.200;2022-08-21T11:24:17;24.60;57.60
20337;DHT22;10326;53.660;10.200;2022-08-21T11:26:54;24.70;58.00
20337;DHT22;10326;53.660;10.200;2022-08-21T11:29:29;24.80;57.70
20337;DHT22;10326;53.660;10.200;2022-08-21T11:32:07;24.90;57.30
20337;DHT22;10326;53.660;10.200;2022-08-21T11:34:56;25.00;56.60
20337;DHT22;10326;53.660;10.200;2022-08-21T11:37:53;25.10;56.50
20337;DHT22;10326;53.660;10.200;2022-08-21T11:40:37;25.20;55.70
20337;DHT22;10326;53.660;10.200;2022-08-21T11:43:24;25.30;55.40
20337;DHT22;10326;53.660;10.200;2022-08-21T11:46:10;25.40;55.30
20337;DHT22;10326;53.660;10.200;2022-08-21T11:48:48;25.40;55.20
20337;DHT22;10326;53.660;10.200;2022-08-21T11:51:31;25.40;56.00
20337;DHT22;10326;53.660;10.200;2022-08-21T11:54:03;25.50;55.80
20337;DHT22;10326;53.660;10.200;2022-08-21T11:56:39;25.50;56.10
20337;DHT22;10326;53.660;10.200;2022-08-21T11:59:12;25.60;55.70
20337;DHT22;10326;53.660;10.200;2022-08-21T12:01:48;25.70;55.60
20337;DHT22;10326;53.660;10.200;2022-08-21T12:04:24;25.70;55.20
20337;DHT22;10326;53.660;10.200;2022-08-21T12:06:55;25.80;54.90
20337;DHT22;10326;53.660;10.200;2022-08-21T12:09:32;25.90;54.70
20337;DHT22;10326;53.660;10.200;2022-08-21T12:12:05;26.00;54.60
20337;DHT22;10326;53.660;10.200;2022-08-21T12:14:39;26.10;54.80
20337;DHT22;10326;53.660;10.200;2022-08-21T12:17:16;26.20;54.10
20337;DHT22;10326;53.660;10.200;2022-08-21T12:19:45;26.30;54.10
20337;DHT22;10326;53.660;10.200;2022-08-21T12:22:14;26.40;54.30
20337;DHT22;10326;53.660;10.200;2022-08-21T12:24:44;26.40;53.20
20337;DHT22;10326;53.660;10.200;2022-08-21T12:27:27;26.40;53.10
20337;DHT22;10326;53.660;10.200;2022-08-21T12:29:58;26.40;53.70
20337;DHT22;10326;53.660;10.200;2022-08-21T12:32:28;26.60;53.50
20337;DHT22;10326;53.660;10.200;2022-08-21T12:35:07;26.60;53.50
20337;DHT22;10326;53.660;10.200;2022-08-21T12:37:40;26.70;52.40
20337;DHT22;10326;53.660;10.200;2022-08-21T12:40:13;26.80;52.70
20337;DHT22;10326;53.660;10.200;2022-08-21T12:42:48;26.90;52.30
20337;DHT22;10326;53.660;10.200;2022-08-21T12:45:19;26.90;51.90
20337;DHT22;10326;53.660;10.200;2022-08-21T12:47:51;27.00;52.10
20337;DHT22;10326;53.660;10.200;2022-08-21T12:50:26;27.00;52.00
20337;DHT22;10326;53.660;10.200;2022-08-21T12:53:00;27.00;51.00
20337;DHT22;10326;53.660;10.200;2022-08-21T12:55:33;27.00;50.50
20337;DHT22;10326;53.660;10.200;2022-08-21T12:58:00;26.90;50.70
20337;DHT22;10326;53.660;10.200;2022-08-21T13:00:28;26.90;51.40
20337;DHT22;10326;53.660;10.200;2022-08-21T13:02:56;26.80;51.30
20337;DHT22;10326;53.660;10.200;2022-08-21T13:05:29;26.80;51.70
20337;DHT22;10326;53.660;10.200;2022-08-21T13:08:03;26.80;50.80
20337;DHT22;10326;53.660;10.200;2022-08-21T13:10:32;26.90;50.00
20337;DHT22;10326;53.660;10.200;2022-08-21T13:13:03;26.90;50.70
20337;DHT22;10326;53.660;10.200;2022-08-21T13:15:34;26.90;50.20
20337;DHT22;10326;53.660;10.200;2022-08-21T13:18:05;27.00;50.20
20337;DHT22;10326;53.660;10.200;2022-08-21T13:20:35;27.00;50.60
20337;DHT22;10326;53.660;10.200;2022-08-21T13:23:21;27.00;50.50
20337;DHT22;10326;53.660;10.200;2022-08-21T13:25:50;27.10;50.90
20337;DHT22;10326;53.660;10.200;2022-08-21T13:28:17;27.20;51.00
20337;DHT22;10326;53.660;10.200;2022-08-21T13:30:46;27.20;50.60
20337;DHT22;10326;53.660;10.200;2022-08-21T13:33:17;27.30;50.00
20337;DHT22;10326;53.660;10.200;2022-08-21T13:35:48;27.30;50.00
20337;DHT22;10326;53.660;10.200;2022-08-21T13:38:19;27.30;49.80
20337;DHT22;10326;53.660;10.200;2022-08-21T13:40:51;27.30;49.30
20337;DHT22;10326;53.660;10.200;2022-08-21T13:43:26;27.40;49.00
20337;DHT22;10326;53.660;10.200;2022-08-21T13:45:55;27.40;49.00
20337;DHT22;10326;53.660;10.200;2022-08-21T13:48:30;27.40;49.90
20337;DHT22;10326;53.660;10.200;2022-08-21T13:50:59;27.40;49.30
20337;DHT22;10326;53.660;10.200;2022-08-21T13:53:30;27.50;49.60
20337;DHT22;10326;53.660;10.200;2022-08-21T13:56:00;27.50;49.20
20337;DHT22;10326;53.660;10.200;2022-08-21T13:58:30;27.60;48.40
20337;DHT22;10326;53.660;10.200;2022-08-21T14:01:01;27.60;48.90
20337;DHT22;10326;53.660;10.200;2022-08-21T14:03:33;27.60;48.50
20337;DHT22;10326;53.660;10.200;2022-08-21T14:06:02;27.70;47.60
20337;DHT22;10326;53.660;10.200;2022-08-21T14:08:32;27.70;48.30
20337;DHT22;10326;53.660;10.200;2022-08-21T14:11:04;27.70;47.90
20337;DHT22;10326;53.660;10.200;2022-08-21T14:13:37;27.70;48.30
20337;DHT22;10326;53.660;10.200;2022-08-21T14:16:15;27.80;48.10
20337;DHT22;10326;53.660;10.200;2022-08-21T14:18:50;27.80;47.20
20337;DHT22;10326;53.660;10.200;2022-08-21T14:21:28;27.90;47.60
20337;DHT22;10326;53.660;10.200;2022-08-21T14:24:08;28.00;47.10
20337;DHT22;10326;53.660;10.200;2022-08-21T14:26:44;28.00;47.30
20337;DHT22;10326;53.660;10.200;2022-08-21T14:29:15;28.00;46.30
20337;DHT22;10326;53.660;10.200;2022-08-21T14:31:43;28.00;46.30
20337;DHT22;10326;53.660;10.200;2022-08-21T14:34:11;28.00;46.20
20337;DHT22;10326;53.660;10.200;2022-08-21T14:36:42;27.90;46.40
20337;DHT22;10326;53.660;10.200;2022-08-21T14:39:10;27.90;46.50
20337;DHT22;10326;53.660;10.200;2022-08-21T14:41:37;27.90;46.70
20337;DHT22;10326;53.660;10.200;2022-08-21T14:44:05;27.80;46.20
20337;DHT22;10326;53.660;10.200;2022-08-21T14:46:33;27.80;47.10
20337;DHT22;10326;53.660;10.200;2022-08-21T14:49:01;27.80;47.30
20337;DHT22;10326;53.660;10.200;2022-08-21T14:51:28;27.80;46.90
20337;DHT22;10326;53.660;10.200;2022-08-21T14:53:55;27.90;46.80
20337;DHT22;10326;53.660;10.200;2022-08-21T14:56:23;27.90;46.80
20337;DHT22;10326;53.660;10.200;2022-08-21T14:58:52;27.90;46.90
20337;DHT22;10326;53.660;10.200;2022-08-21T15:01:22;28.00;46.60
20337;DHT22;10326;53.660;10.200;2022-08-21T15:03:49;28.00;46.50
20337;DHT22;10326;53.660;10.200;2022-08-21T15:06:17;28.00;46.20
20337;DHT22;10326;53.660;10.200;2022-08-21T15:08:46;27.90;46.20
20337;DHT22;10326;53.660;10.200;2022-08-21T15:11:20;27.90;46.10
20337;DHT22;10326;53.660;10.200;2022-08-21T15:13:58;27.80;46.40
20337;DHT22;10326;53.660;10.200;2022-08-21T15:16:28;27.80;46.80
20337;DHT22;10326;53.660;10.200;2022-08-21T15:18:56;27.80;46.90
20337;DHT22;10326;53.660;10.200;2022-08-21T15:21:23;27.80;46.70
20337;DHT22;10326;53.660;10.200;2022-08-21T15:23:50;27.80;47.10
20337;DHT22;10326;53.660;10.200;2022-08-21T15:26:18;27.80;46.40
20337;DHT22;10326;53.660;10.200;2022-08-21T15:28:46;27.80;45.30
20337;DHT22;10326;53.660;10.200;2022-08-21T15:31:14;27.80;45.60
20337;DHT22;10326;53.660;10.200;2022-08-21T15:33:41;27.80;45.10
20337;DHT22;10326;53.660;10.200;2022-08-21T15:36:08;27.80;45.40